Time;durP1;ratioP1;P1;durP2;ratioP2;P2;SDS_P1;SDS_P2;PMS_P1;PMS_P2;Temp;Humidity;BMP_temperature;BMP_pressure;BME280_temperature;BME280_humidity;BME280_pressure;Samples;Min_cycle;Max_cycle;Signal;HPM_P1;HPM_P2
2021/03/13 00:02:05;;;;;;;4.50;2.50;;;7.60;63.00;;;;;;6245911;22;20225;-88
2021/03/13 00:04:52;;;;;;;2.05;2.05;;;7.30;64.40;;;;;;6262606;22;20151;-88
2021/03/13 00:07:19;;;;;;;6.38;2.20;;;7.60;64.60;;;;;;6248157;22;20139;-87
2021/03/13 00:10:03;;;;;;;7.05;3.17;;;7.50;64.10;;;;;;6193680;23;20177;-88
2021/03/13 00:12:34;;;;;;;2.45;1.65;;;6.20;66.50;;;;;;6243056;23;20162;-88
2021/03/13 00:15:01;;;;;;;9.93;1.92;;;7.50;64.40;;;;;;6239756;23;20158;-88
2021/03/13 00:17:26;;;;;;;2.45;2.25;;;8.00;65.30;;;;;;6242316;23;20196;-88
2021/03/13 00:19:53;;;;;;;6.63;2.70;;;7.40;67.10;;;;;;6215673;23;20193;-88
2021/03/13 00:22:19;;;;;;;4.00;2.40;;;7.50;67.00;;;;;;6240704;23;20385;-87
2021/03/13 00:24:47;;;;;;;1.90;1.80;;;7.40;67.50;;;;;;6239557;23;20158;-88
2021/03/13 00:27:13;;;;;;;3.33;2.72;;;8.80;65.90;;;;;;6215180;23;20151;-88
2021/03/13 00:29:46;;;;;;;7.90;2.33;;;6.70;67.30;;;;;;6236934;23;20492;-88
2021/03/13 00:32:12;;;;;;;2.67;1.75;;;7.60;65.30;;;;;;6265105;23;20618;-87
2021/03/13 00:34:42;;;;;;;3.20;1.90;;;7.60;68.80;;;;;;6238359;23;20151;-88
2021/03/13 00:37:08;;;;;;;6.03;2.10;;;6.80;64.10;;;;;;6228982;23;20186;-88
2021/03/13 00:39:35;;;;;;;5.87;2.90;;;7.60;67.30;;;;;;6237216;23;20206;-89
2021/03/13 00:42:02;;;;;;;2.43;1.70;;;8.20;64.80;;;;;;6237141;23;20157;-88
2021/03/13 00:44:33;;;;;;;5.85;1.90;;;6.30;65.60;;;;;;6266132;23;20393;-88
2021/03/13 00:46:59;;;;;;;3.90;1.83;;;7.60;63.40;;;;;;6213822;23;20177;-88
2021/03/13 00:49:26;;;;;;;1.83;1.73;;;7.50;66.60;;;;;;6235203;23;20150;-87
2021/03/13 00:51:53;;;;;;;5.28;2.20;;;7.60;68.10;;;;;;6264448;23;20405;-88
2021/03/13 00:54:19;;;;;;;6.38;1.95;;;7.50;67.30;;;;;;6241162;23;20229;-87
2021/03/13 00:56:46;;;;;;;4.47;1.50;;;6.90;67.20;;;;;;6242848;23;20189;-86
2021/03/13 00:59:26;;;;;;;2.55;1.85;;;5.50;66.20;;;;;;6216092;23;20155;-87
2021/03/13 01:01:53;;;;;;;8.77;2.10;;;7.20;69.70;;;;;;6242927;23;20143;-89
2021/03/13 01:04:26;;;;;;;4.50;2.42;;;7.40;70.80;;;;;;6242413;23;20157;-87
2021/03/13 01:06:53;;;;;;;7.30;1.50;;;7.30;71.30;;;;;;6245104;23;20191;-88
2021/03/13 01:09:21;;;;;;;4.70;2.03;;;7.10;70.40;;;;;;6246624;22;20151;-88
2021/03/13 01:11:50;;;;;;;3.63;2.85;;;5.90;71.80;;;;;;6242562;23;20158;-88
2021/03/13 01:14:19;;;;;;;13.25;2.50;;;7.10;74.60;;;;;;6242899;23;20190;-87
2021/03/13 01:16:47;;;;;;;2.33;1.95;;;7.10;73.90;;;;;;6271220;23;20154;-88
2021/03/13 01:19:15;;;;;;;4.43;2.50;;;8.30;75.20;;;;;;6244473;23;20219;-88
2021/03/13 01:21:44;;;;;;;4.00;1.95;;;8.00;72.40;;;;;;6243856;23;20171;-88
2021/03/13 01:24:23;;;;;;;3.03;1.90;;;7.10;70.20;;;;;;6245535;23;20174;-88
2021/03/13 01:26:49;;;;;;;2.40;2.28;;;6.60;70.90;;;;;;6244746;23;20470;-87
2021/03/13 01:29:35;;;;;;;3.88;2.03;;;4.30;70.50;;;;;;6272596;23;20163;-88
2021/03/13 01:32:04;;;;;;;5.30;2.30;;;7.80;72.50;;;;;;6245604;23;20178;-88
2021/03/13 01:34:33;;;;;;;1.58;1.52;;;7.00;71.30;;;;;;6222256;23;20154;-87
2021/03/13 01:37:01;;;;;;;3.05;2.90;;;7.00;76.10;;;;;;6221638;23;20189;-87
2021/03/13 01:39:48;;;;;;;7.10;3.00;;;10.00;75.70;;;;;;6271453;23;20150;-88
2021/03/13 01:42:40;;;;;;;6.90;2.67;;;6.90;76.40;;;;;;6271488;23;20150;-88
2021/03/13 01:45:14;;;;;;;5.45;3.15;;;7.00;79.20;;;;;;6246216;22;20135;-88
2021/03/13 01:47:47;;;;;;;8.32;3.00;;;6.90;78.20;;;;;;6245785;23;20150;-87
2021/03/13 01:50:22;;;;;;;2.80;2.55;;;9.40;79.60;;;;;;6246344;23;20127;-87
2021/03/13 01:53:06;;;;;;;5.03;3.83;;;6.80;79.50;;;;;;6273373;23;20135;-87
2021/03/13 01:55:36;;;;;;;4.72;3.10;;;8.20;79.40;;;;;;6268908;23;20134;-88
2021/03/13 01:58:03;;;;;;;3.78;3.53;;;7.40;79.20;;;;;;6192423;23;20190;-87
2021/03/13 02:00:30;;;;;;;7.25;4.00;;;6.00;81.60;;;;;;6241450;23;20147;-88
2021/03/13 02:03:01;;;;;;;4.40;4.00;;;6.60;78.30;;;;;;6212417;23;20159;-88
2021/03/13 02:05:32;;;;;;;3.55;3.35;;;6.60;79.60;;;;;;6208790;23;20191;-88
2021/03/13 02:08:21;;;;;;;5.20;4.55;;;6.50;83.00;;;;;;6215347;23;20167;-89
2021/03/13 02:11:07;;;;;;;4.32;3.40;;;7.20;81.30;;;;;;6213518;23;20147;-87
2021/03/13 02:14:11;;;;;;;6.40;4.38;;;7.20;82.10;;;;;;6238362;23;20165;-87
2021/03/13 02:17:01;;;;;;;8.20;4.38;;;6.80;83.10;;;;;;6215215;23;20599;-88
2021/03/13 02:20:24;;;;;;;4.40;4.00;;;7.40;84.60;;;;;;6235633;23;20135;-86
2021/03/13 02:23:16;;;;;;;6.00;4.40;;;7.10;84.30;;;;;;6156660;23;20193;-88
2021/03/13 02:26:20;;;;;;;4.65;4.20;;;8.80;86.70;;;;;;6215260;23;20158;-88
2021/03/13 02:32:54;;;;;;;3.13;3.13;;;8.80;87.30;;;;;;6242682;23;20166;-88
2021/03/13 02:35:52;;;;;;;6.38;4.00;;;3.60;80.00;;;;;;6242857;23;20152;-88
2021/03/13 02:38:43;;;;;;;6.10;5.60;;;6.30;87.00;;;;;;6243551;23;20171;-88
2021/03/13 02:41:33;;;;;;;5.38;4.50;;;8.80;87.90;;;;;;6194745;23;20139;-89
2021/03/13 02:44:14;;;;;;;7.38;3.90;;;6.30;87.10;;;;;;6188705;23;20175;-88
2021/03/13 02:47:06;;;;;;;3.35;3.25;;;7.00;84.80;;;;;;6235720;23;20139;-88
2021/03/13 02:49:38;;;;;;;4.65;4.43;;;6.20;86.60;;;;;;6211402;23;20162;-89
2021/03/13 02:52:07;;;;;;;4.93;4.72;;;7.90;87.20;;;;;;6215131;23;20155;-88
2021/03/13 02:54:37;;;;;;;3.60;3.40;;;6.70;84.60;;;;;;6212971;23;20147;-89
2021/03/13 02:57:05;;;;;;;4.22;4.03;;;6.20;87.30;;;;;;6235406;23;20175;-88
2021/03/13 02:59:34;;;;;;;3.20;3.20;;;6.20;87.10;;;;;;6210451;23;20186;-88
2021/03/13 03:02:21;;;;;;;3.35;3.05;;;6.20;87.10;;;;;;6210728;23;20147;-89
2021/03/13 03:04:50;;;;;;;3.53;3.30;;;6.40;83.70;;;;;;6192261;23;20168;-89
2021/03/13 03:07:27;;;;;;;3.33;3.22;;;6.20;86.90;;;;;;6211764;23;20581;-88
2021/03/13 03:10:02;;;;;;;3.50;3.20;;;6.70;85.00;;;;;;6240919;23;20166;-88
2021/03/13 03:12:41;;;;;;;3.90;3.17;;;6.20;87.70;;;;;;6240229;23;20150;-88
2021/03/13 03:15:10;;;;;;;2.83;2.72;;;7.40;86.00;;;;;;6217956;23;20163;-89
2021/03/13 03:17:48;;;;;;;2.20;2.20;;;7.10;85.80;;;;;;6242192;23;20182;-88
2021/03/13 03:20:20;;;;;;;3.90;3.28;;;6.20;87.30;;;;;;6243957;23;20155;-88
2021/03/13 03:25:23;;;;;;;3.95;3.70;;;6.20;86.30;;;;;;6128145;23;20284;-88
2021/03/13 03:27:50;;;;;;;3.63;3.53;;;6.10;89.10;;;;;;6167414;22;20224;-89
2021/03/13 03:30:29;;;;;;;2.75;2.65;;;6.10;88.80;;;;;;6274704;22;20381;-88
2021/03/13 03:32:57;;;;;;;6.55;3.15;;;6.10;89.10;;;;;;6269287;22;20182;-88
2021/03/13 03:35:24;;;;;;;3.20;3.10;;;6.10;89.40;;;;;;6272230;22;20146;-89
2021/03/13 03:37:52;;;;;;;3.75;3.50;;;6.10;89.40;;;;;;6238967;23;20238;-86
2021/03/13 03:40:20;;;;;;;5.32;4.10;;;6.00;89.10;;;;;;6264590;23;20145;-89
2021/03/13 03:43:03;;;;;;;3.05;2.78;;;5.20;88.90;;;;;;6265841;23;20216;-89
2021/03/13 03:45:31;;;;;;;3.22;3.13;;;8.70;90.00;;;;;;6241346;23;20167;-89
2021/03/13 03:48:07;;;;;;;1.95;1.95;;;6.10;89.50;;;;;;6240743;23;20144;-90
2021/03/13 03:50:37;;;;;;;3.30;3.15;;;4.60;85.80;;;;;;6269265;23;20194;-89
2021/03/13 03:53:18;;;;;;;2.38;2.28;;;5.90;86.60;;;;;;6244697;22;20139;-89
2021/03/13 03:56:06;;;;;;;2.30;2.20;;;8.00;89.50;;;;;;6239353;23;20226;-89
2021/03/13 03:58:44;;;;;;;2.15;2.15;;;6.20;89.60;;;;;;6244327;23;20190;-89
2021/03/13 04:01:42;;;;;;;2.10;2.10;;;8.70;90.00;;;;;;6244201;23;20135;-88
2021/03/13 04:04:14;;;;;;;2.60;2.47;;;7.00;87.80;;;;;;6241794;23;20182;-88
2021/03/13 04:07:17;;;;;;;4.75;2.45;;;6.80;86.90;;;;;;6244049;23;20130;-88
2021/03/13 04:09:44;;;;;;;2.17;2.08;;;7.10;87.70;;;;;;6241623;23;20152;-88
2021/03/13 04:12:12;;;;;;;3.08;2.97;;;6.10;90.20;;;;;;6266051;23;20162;-89
2021/03/13 04:14:40;;;;;;;2.22;2.13;;;6.10;88.30;;;;;;6269889;23;20135;-88
2021/03/13 04:17:22;;;;;;;1.67;1.67;;;6.10;88.70;;;;;;6240329;23;20210;-90
2021/03/13 04:19:51;;;;;;;1.73;1.63;;;7.30;89.20;;;;;;6237686;23;20162;-90
2021/03/13 04:22:17;;;;;;;1.75;1.75;;;6.10;87.20;;;;;;6267744;23;20150;-89
2021/03/13 04:24:49;;;;;;;1.70;1.70;;;6.10;88.20;;;;;;6236179;23;20147;-88
2021/03/13 04:27:20;;;;;;;1.92;1.63;;;6.10;90.10;;;;;;6242498;23;20139;-89
2021/03/13 04:29:47;;;;;;;2.78;2.53;;;6.10;88.20;;;;;;6214520;23;20202;-87
2021/03/13 04:32:37;;;;;;;3.90;2.20;;;6.30;87.50;;;;;;6267002;23;20154;-88
2021/03/13 04:35:06;;;;;;;1.73;1.73;;;7.70;86.80;;;;;;6240564;23;20166;-88
2021/03/13 04:37:34;;;;;;;1.90;1.90;;;6.20;89.60;;;;;;6239424;23;20182;-90
2021/03/13 04:40:10;;;;;;;1.10;1.10;;;6.20;87.60;;;;;;6243869;23;20155;-89
2021/03/13 04:42:39;;;;;;;2.58;1.65;;;5.00;83.10;;;;;;6264063;23;20169;-88
2021/03/13 04:45:18;;;;;;;1.67;1.58;;;6.20;87.70;;;;;;6238866;23;20150;-88
2021/03/13 04:47:50;;;;;;;1.95;1.85;;;7.50;87.40;;;;;;6239359;23;20142;-87
2021/03/13 04:50:20;;;;;;;2.05;2.05;;;6.00;85.10;;;;;;6237984;23;20143;-87
2021/03/13 04:52:55;;;;;;;1.90;1.90;;;6.20;88.40;;;;;;6238394;23;20135;-89
2021/03/13 04:55:31;;;;;;;2.05;2.05;;;8.90;88.80;;;;;;6238393;23;20161;-89
2021/03/13 04:57:57;;;;;;;1.52;1.52;;;8.20;90.50;;;;;;6262910;23;20166;-89
2021/03/13 05:00:23;;;;;;;1.93;1.93;;;6.30;89.10;;;;;;6269329;23;20141;-88
2021/03/13 05:02:51;;;;;;;1.35;1.35;;;6.70;89.10;;;;;;6243735;23;20151;-87
2021/03/13 05:05:17;;;;;;;1.45;1.30;;;6.30;85.00;;;;;;6246563;23;20206;-89
2021/03/13 05:07:43;;;;;;;1.40;1.40;;;6.30;88.50;;;;;;6267307;23;20169;-88
2021/03/13 05:10:31;;;;;;;1.10;1.00;;;6.20;88.40;;;;;;6218947;23;20147;-88
2021/03/13 05:12:58;;;;;;;1.10;1.10;;;5.70;85.70;;;;;;6239813;23;20161;-87
2021/03/13 05:15:24;;;;;;;0.90;0.90;;;6.20;87.90;;;;;;6243053;23;20147;-89
2021/03/13 05:17:52;;;;;;;1.10;1.10;;;6.30;88.80;;;;;;6222221;23;20177;-89
2021/03/13 05:20:52;;;;;;;1.50;1.50;;;5.40;84.20;;;;;;6223180;23;20155;-86
2021/03/13 05:23:48;;;;;;;2.03;2.03;;;9.10;89.70;;;;;;6247831;23;20127;-88
2021/03/13 05:26:21;;;;;;;1.23;1.15;;;8.70;89.70;;;;;;6220611;22;20155;-87
2021/03/13 05:28:59;;;;;;;1.50;1.50;;;6.60;86.20;;;;;;6233758;23;20178;-88
2021/03/13 05:31:27;;;;;;;1.48;1.48;;;7.10;87.50;;;;;;6245227;23;20138;-88
2021/03/13 05:33:58;;;;;;;1.75;1.65;;;7.10;86.30;;;;;;6241734;23;20154;-89
2021/03/13 05:36:26;;;;;;;1.40;1.40;;;6.50;85.50;;;;;;6271052;23;20126;-89
2021/03/13 05:38:57;;;;;;;1.33;1.25;;;6.50;89.40;;;;;;6245210;23;20210;-89
2021/03/13 05:41:25;;;;;;;1.70;1.70;;;7.50;89.20;;;;;;6259808;22;20162;-87
2021/03/13 05:43:54;;;;;;;2.28;1.20;;;6.50;89.60;;;;;;6245040;23;20151;-88
2021/03/13 05:46:22;;;;;;;1.05;1.05;;;6.60;85.90;;;;;;6244133;23;20151;-88
2021/03/13 05:48:54;;;;;;;1.92;0.98;;;9.20;89.70;;;;;;6221930;23;20217;-89
2021/03/13 05:51:46;;;;;;;2.22;1.38;;;6.70;88.90;;;;;;6273061;22;20135;-88
2021/03/13 05:54:27;;;;;;;0.75;0.75;;;7.00;87.10;;;;;;6244279;23;20153;-88
2021/03/13 05:57:26;;;;;;;1.40;1.30;;;7.40;87.20;;;;;;6270067;23;20171;-89
2021/03/13 05:59:52;;;;;;;1.02;1.00;;;9.30;89.90;;;;;;6244912;23;20150;-88
2021/03/13 06:02:22;;;;;;;1.10;1.10;;;6.70;88.40;;;;;;6246816;22;20134;-88
2021/03/13 06:05:12;;;;;;;1.10;1.08;;;6.80;88.50;;;;;;6230082;22;20417;-89
2021/03/13 06:10:34;;;;;;;1.20;1.20;;;6.50;84.40;;;;;;6273973;22;20162;-90
2021/03/13 06:13:03;;;;;;;0.60;0.60;;;6.90;88.10;;;;;;6241794;22;20159;-87
2021/03/13 06:15:30;;;;;;;0.80;0.80;;;7.90;86.20;;;;;;6245195;23;20155;-89
2021/03/13 06:18:22;;;;;;;1.10;1.10;;;6.90;87.50;;;;;;6244027;22;20190;-89
2021/03/13 06:21:16;;;;;;;1.10;1.10;;;9.30;87.80;;;;;;6260371;23;20145;-88
2021/03/13 06:23:55;;;;;;;1.58;0.77;;;9.60;87.60;;;;;;6221776;23;20134;-88
2021/03/13 06:27:04;;;;;;;0.68;0.68;;;9.60;87.60;;;;;;6271386;22;20151;-86
2021/03/13 06:29:31;;;;;;;0.60;0.60;;;7.70;85.50;;;;;;6242895;23;20186;-87
2021/03/13 06:32:50;;;;;;;0.90;0.87;;;6.90;86.90;;;;;;6216791;23;20158;-87
2021/03/13 06:38:59;;;;;;;0.82;0.50;;;8.10;88.20;;;;;;6270634;23;20255;-89
2021/03/13 06:42:12;;;;;;;2.05;0.63;;;9.70;89.30;;;;;;6247200;22;20150;-86
2021/03/13 06:50:26;;;;;;;2.40;0.73;;;7.10;86.40;;;;;;6267233;22;20203;-87
2021/03/13 06:53:06;;;;;;;0.50;0.50;;;7.20;88.40;;;;;;6273467;22;20119;-88
2021/03/13 06:55:32;;;;;;;1.33;1.02;;;7.10;89.60;;;;;;6164938;22;20194;-88
2021/03/13 06:58:18;;;;;;;1.57;0.70;;;9.50;90.00;;;;;;6119468;23;20177;-88
2021/03/13 07:08:32;;;;;;;2.25;0.55;;;7.70;83.90;;;;;;6137516;22;20234;-88
2021/03/13 07:11:03;;;;;;;0.68;0.40;;;7.40;86.20;;;;;;6239771;23;20155;-89
2021/03/13 07:13:40;;;;;;;0.77;0.60;;;7.30;85.80;;;;;;6265073;23;20207;-88
2021/03/13 07:16:50;;;;;;;0.82;0.80;;;7.90;84.60;;;;;;6242765;23;20155;-88
2021/03/13 07:19:16;;;;;;;0.50;0.50;;;8.50;86.30;;;;;;6264498;23;20159;-90
2021/03/13 07:21:46;;;;;;;0.57;0.47;;;7.50;85.40;;;;;;6239135;23;20154;-85
2021/03/13 07:24:16;;;;;;;0.50;0.50;;;7.60;81.30;;;;;;6267740;23;20166;-87
2021/03/13 07:26:46;;;;;;;1.13;0.73;;;7.70;84.80;;;;;;6262974;23;20143;-87
2021/03/13 07:29:18;;;;;;;1.90;0.90;;;8.60;84.40;;;;;;6237981;23;20155;-86
2021/03/13 07:32:02;;;;;;;0.88;0.88;;;7.60;87.30;;;;;;6217542;23;20155;-87
2021/03/13 07:34:47;;;;;;;0.55;0.55;;;8.00;88.20;;;;;;6242067;23;20583;-87
2021/03/13 07:37:25;;;;;;;1.35;0.68;;;10.00;88.60;;;;;;6236098;23;20242;-89
2021/03/13 07:39:53;;;;;;;0.50;0.50;;;7.50;85.80;;;;;;6236152;23;20218;-87
2021/03/13 07:42:20;;;;;;;0.75;0.57;;;7.40;82.50;;;;;;6232507;23;20155;-87
2021/03/13 07:44:49;;;;;;;0.60;0.60;;;7.30;77.70;;;;;;6234075;23;20579;-87
2021/03/13 07:47:39;;;;;;;1.58;1.13;;;7.30;79.70;;;;;;6237115;23;20150;-87
2021/03/13 07:50:23;;;;;;;0.93;0.93;;;7.20;82.60;;;;;;6234700;23;20154;-85
2021/03/13 07:52:56;;;;;;;0.73;0.47;;;7.20;82.10;;;;;;6240206;23;20135;-86
2021/03/13 07:55:25;;;;;;;0.40;0.40;;;9.60;81.20;;;;;;6239846;23;20170;-88
2021/03/13 07:57:52;;;;;;;0.73;0.50;;;6.90;80.60;;;;;;6237878;23;20174;-86
2021/03/13 08:00:55;;;;;;;0.85;0.70;;;6.90;79.40;;;;;;6265751;23;20233;-88
2021/03/13 08:03:40;;;;;;;0.30;0.30;;;7.20;76.60;;;;;;6269087;23;20131;-88
2021/03/13 08:06:57;;;;;;;0.88;0.88;;;6.70;76.60;;;;;;6272162;22;20127;-85
2021/03/13 08:09:32;;;;;;;0.90;0.82;;;7.90;74.70;;;;;;6227456;22;20240;-86
2021/03/13 08:12:05;;;;;;;1.27;0.80;;;6.70;75.80;;;;;;6269668;22;20157;-88
2021/03/13 08:17:15;;;;;;;2.15;0.60;;;6.80;70.40;;;;;;6229654;22;20212;-85
2021/03/13 08:20:09;;;;;;;0.68;0.60;;;6.80;71.30;;;;;;6244920;23;20171;-86
2021/03/13 08:22:41;;;;;;;0.60;0.60;;;6.80;72.50;;;;;;6243537;23;20147;-87
2021/03/13 08:25:52;;;;;;;0.35;0.35;;;6.60;70.40;;;;;;6243521;22;20139;-87
2021/03/13 08:29:03;;;;;;;0.40;0.40;;;7.30;67.90;;;;;;6269554;23;20143;-87
2021/03/13 08:31:59;;;;;;;0.70;0.70;;;8.10;69.10;;;;;;6269191;23;20134;-86
2021/03/13 08:35:05;;;;;;;1.65;0.73;;;7.00;66.00;;;;;;6260707;22;20205;-87
2021/03/13 08:37:52;;;;;;;2.75;0.60;;;6.90;68.80;;;;;;6243788;23;20177;-86
2021/03/13 08:41:06;;;;;;;3.90;0.95;;;7.00;69.40;;;;;;6244058;23;20131;-88
2021/03/13 08:50:13;;;;;;;1.10;1.10;;;9.80;68.30;;;;;;6227722;22;20142;-87
2021/03/13 08:52:59;;;;;;;2.63;1.00;;;8.00;71.00;;;;;;6227684;22;20149;-84
2021/03/13 08:55:56;;;;;;;2.47;0.90;;;7.40;67.80;;;;;;6241709;23;20226;-87
2021/03/13 08:58:50;;;;;;;2.20;1.17;;;8.50;67.30;;;;;;6109853;23;20261;-86
2021/03/13 09:01:22;;;;;;;2.05;0.45;;;10.10;66.30;;;;;;6117847;23;20222;-86
2021/03/13 09:09:17;;;;;;;0.82;0.70;;;7.60;65.10;;;;;;6163714;22;20437;-86
2021/03/13 09:11:45;;;;;;;0.73;0.60;;;7.50;67.40;;;;;;6245763;22;20170;-87
2021/03/13 09:14:22;;;;;;;1.00;1.00;;;7.60;67.80;;;;;;6241967;22;20397;-88
2021/03/13 09:17:08;;;;;;;2.78;0.82;;;10.20;67.90;;;;;;6244345;22;20174;-88
2021/03/13 09:19:34;;;;;;;0.93;0.60;;;7.80;68.90;;;;;;6238899;23;20201;-86
2021/03/13 09:22:06;;;;;;;1.00;0.90;;;7.70;69.70;;;;;;6231673;23;20147;-88
2021/03/13 09:24:35;;;;;;;0.93;0.93;;;7.70;71.00;;;;;;6231347;23;20161;-86
2021/03/13 09:27:05;;;;;;;0.90;0.90;;;7.80;70.00;;;;;;6236696;23;20230;-87
2021/03/13 09:29:41;;;;;;;1.85;1.00;;;7.80;70.70;;;;;;6236062;23;20142;-87
2021/03/13 09:32:13;;;;;;;0.55;0.55;;;7.80;71.70;;;;;;6237527;23;20149;-88
2021/03/13 09:34:55;;;;;;;0.63;0.63;;;8.90;68.90;;;;;;6237768;23;20196;-88
2021/03/13 09:37:26;;;;;;;2.05;0.85;;;7.90;68.50;;;;;;6263867;23;20171;-87
2021/03/13 09:40:02;;;;;;;0.80;0.80;;;8.40;67.60;;;;;;6262133;23;20174;-88
2021/03/13 09:42:29;;;;;;;1.35;0.60;;;10.00;66.40;;;;;;6234377;23;20436;-88
2021/03/13 09:45:19;;;;;;;5.22;1.02;;;8.30;67.10;;;;;;6236667;23;20154;-88
2021/03/13 09:53:11;;;;;;;1.60;0.82;;;7.80;67.50;;;;;;6230455;22;20201;-87
2021/03/13 09:55:38;;;;;;;3.45;2.72;;;10.10;72.30;;;;;;6270057;22;20141;-85
2021/03/13 09:58:04;;;;;;;1.98;1.08;;;7.60;75.30;;;;;;6238582;23;20182;-84
2021/03/13 10:00:33;;;;;;;6.28;1.60;;;7.60;74.50;;;;;;6263680;23;20153;-86
2021/03/13 10:03:12;;;;;;;1.50;1.40;;;7.70;72.10;;;;;;6260478;23;20147;-89
2021/03/13 10:05:55;;;;;;;1.55;0.43;;;8.20;69.80;;;;;;6260109;23;20555;-88
2021/03/13 10:08:21;;;;;;;3.85;1.40;;;7.70;68.80;;;;;;6207925;23;20246;-87
2021/03/13 10:13:58;;;;;;;;;;;;;;;;;;;;;
2021/03/13 10:16:33;;;;;;;5.28;1.60;;;8.50;64.90;;;;;;6084206;23;20162;-87
2021/03/13 10:19:21;;;;;;;3.20;2.00;;;8.50;65.90;;;;;;6123250;23;20195;-86
2021/03/13 10:22:34;;;;;;;1.25;0.98;;;8.00;66.80;;;;;;6187853;23;20160;-87
2021/03/13 10:25:33;;;;;;;3.10;2.08;;;10.80;65.10;;;;;;6212535;23;20155;-86
2021/03/13 10:28:19;;;;;;;3.22;1.40;;;9.00;63.70;;;;;;6235119;23;20176;-88
2021/03/13 10:30:47;;;;;;;7.72;2.55;;;8.60;61.90;;;;;;6232279;23;20528;-88
2021/03/13 10:33:14;;;;;;;2.60;1.90;;;8.70;59.90;;;;;;6208966;23;20155;-86
2021/03/13 10:35:54;;;;;;;3.05;1.30;;;8.40;59.60;;;;;;6237147;23;20266;-86
2021/03/13 10:41:15;;;;;;;5.80;2.78;;;9.10;57.50;;;;;;6230030;23;20205;-87
2021/03/13 10:44:13;;;;;;;2.38;1.60;;;8.70;59.00;;;;;;6237030;23;20143;-89
2021/03/13 10:46:59;;;;;;;2.73;1.63;;;9.30;56.70;;;;;;6207669;23;20148;-88
2021/03/13 10:49:43;;;;;;;4.40;1.48;;;11.40;56.90;;;;;;6144622;23;20404;-85
2021/03/13 10:52:45;;;;;;;4.93;2.10;;;9.10;57.00;;;;;;6194373;23;20139;-88
2021/03/13 10:55:16;;;;;;;3.95;1.10;;;11.20;57.30;;;;;;6236678;23;20374;-87
2021/03/13 10:58:14;;;;;;;2.00;1.20;;;8.50;56.30;;;;;;6210373;23;20251;-87
2021/03/13 11:01:10;;;;;;;3.30;1.00;;;9.70;53.70;;;;;;6221938;23;20401;-86
2021/03/13 11:07:23;;;;;;;7.00;1.93;;;10.50;50.40;;;;;;5726806;23;9932919;-88
2021/03/13 11:10:41;;;;;;;5.47;1.48;;;10.20;50.90;;;;;;6144095;23;20126;-88
2021/03/13 11:18:32;;;;;;;2.25;1.02;;;9.00;60.40;;;;;;6238363;23;20316;-85
2021/03/13 11:26:28;;;;;;;2.93;1.40;;;8.50;65.40;;;;;;6167023;22;20203;-86
2021/03/13 11:28:56;;;;;;;4.15;1.48;;;9.60;63.20;;;;;;6241094;23;20717;-87
2021/03/13 11:31:22;;;;;;;4.67;2.00;;;10.50;59.20;;;;;;6184687;22;20226;-84
2021/03/13 11:36:30;;;;;;;3.87;1.73;;;12.00;55.20;;;;;;6101276;23;20209;-87
2021/03/13 11:39:07;;;;;;;2.87;2.03;;;12.30;70.30;;;;;;6138063;22;20413;-88
2021/03/13 11:46:56;;;;;;;1.73;1.43;;;13.50;48.70;;;;;;6115996;22;20416;-86
2021/03/13 11:49:24;;;;;;;1.30;1.20;;;17.70;49.60;;;;;;6119612;23;20392;-88
2021/03/13 11:52:19;;;;;;;3.40;0.87;;;13.40;47.50;;;;;;6143897;23;20726;-89
2021/03/13 11:54:46;;;;;;;4.00;1.77;;;14.00;48.50;;;;;;6083116;22;20459;-87
2021/03/13 11:57:27;;;;;;;1.63;1.53;;;12.00;52.10;;;;;;6103924;23;20433;-88
2021/03/13 12:00:33;;;;;;;2.05;1.48;;;11.10;52.70;;;;;;6108016;23;20387;-87
2021/03/13 12:08:42;;;;;;;1.50;1.30;;;12.10;48.10;;;;;;6228064;22;20438;-88
2021/03/13 12:11:21;;;;;;;4.67;2.23;;;13.60;53.50;;;;;;6161650;23;20500;-87
2021/03/13 12:14:14;;;;;;;4.00;1.70;;;15.90;53.20;;;;;;6212802;23;20493;-86
2021/03/13 12:17:03;;;;;;;2.43;1.80;;;15.00;49.80;;;;;;6221038;22;20425;-88
2021/03/13 12:19:33;;;;;;;2.37;1.70;;;14.70;49.00;;;;;;6246493;22;20477;-86
2021/03/13 12:22:39;;;;;;;12.17;3.80;;;13.30;51.60;;;;;;6263311;23;20433;-88
2021/03/13 12:25:08;;;;;;;4.00;2.50;;;14.50;49.60;;;;;;6241202;23;20381;-86
2021/03/13 12:27:49;;;;;;;9.93;2.30;;;11.40;50.80;;;;;;6240511;23;20397;-87
2021/03/13 12:30:22;;;;;;;2.28;1.00;;;12.80;49.70;;;;;;6163240;22;20208;-89
2021/03/13 12:32:51;;;;;;;4.57;2.23;;;13.30;53.00;;;;;;6189602;23;20200;-88
2021/03/13 12:35:27;;;;;;;9.65;2.88;;;11.70;55.50;;;;;;6206318;22;20426;-88
2021/03/13 12:40:35;;;;;;;1.58;1.58;;;9.70;51.50;;;;;;6156273;22;20512;-89
2021/03/13 12:43:06;;;;;;;5.50;1.97;;;8.60;63.90;;;;;;6229141;22;20201;-88
2021/03/13 12:45:31;;;;;;;4.72;1.90;;;7.90;67.60;;;;;;6120472;23;20191;-86
2021/03/13 12:48:36;;;;;;;3.97;1.93;;;7.30;78.60;;;;;;6121310;22;20153;-84
2021/03/13 12:56:37;;;;;;;1.70;1.60;;;8.30;75.50;;;;;;6199905;22;20202;-88
2021/03/13 13:06:51;;;;;;;0.93;0.90;;;8.10;73.00;;;;;;6244546;22;20206;-91
2021/03/13 13:09:19;;;;;;;4.88;1.70;;;7.90;75.30;;;;;;6247239;22;20139;-86
2021/03/13 13:12:27;;;;;;;4.60;1.90;;;8.10;76.10;;;;;;6246398;22;20157;-87
2021/03/13 13:15:21;;;;;;;3.95;2.70;;;8.00;74.90;;;;;;6221121;22;20146;-89
2021/03/13 13:18:38;;;;;;;8.80;2.17;;;8.00;76.70;;;;;;6271900;22;20629;-86
2021/03/13 13:21:17;;;;;;;3.20;1.70;;;10.50;75.90;;;;;;6245506;22;20162;-87
2021/03/13 13:24:55;;;;;;;5.55;2.38;;;10.70;74.50;;;;;;6244997;22;20211;-89
2021/03/13 13:28:04;;;;;;;6.90;2.10;;;11.10;70.60;;;;;;6188333;23;20236;-89
2021/03/13 13:30:55;;;;;;;7.03;2.10;;;8.80;64.60;;;;;;6241201;23;20185;-90
2021/03/13 13:33:50;;;;;;;3.13;2.00;;;11.20;64.60;;;;;;6272532;22;20151;-90
2021/03/13 13:36:28;;;;;;;7.38;2.30;;;11.30;62.50;;;;;;6245556;23;20150;-88
2021/03/13 13:39:04;;;;;;;2.63;1.67;;;8.70;62.30;;;;;;6271401;22;20158;-88
2021/03/13 13:41:56;;;;;;;4.65;2.13;;;11.10;59.70;;;;;;6241080;23;20393;-90
2021/03/13 13:44:42;;;;;;;6.60;2.55;;;8.30;64.00;;;;;;6271394;23;20127;-88
2021/03/13 13:47:13;;;;;;;2.22;1.27;;;7.40;70.30;;;;;;6259054;23;20150;-89
2021/03/13 13:49:42;;;;;;;4.43;2.55;;;9.60;72.60;;;;;;6252773;23;20195;-89
2021/03/13 13:52:15;;;;;;;2.15;1.48;;;7.40;70.50;;;;;;6266943;23;20131;-87
2021/03/13 13:54:47;;;;;;;1.60;1.50;;;6.90;74.90;;;;;;6264742;23;20161;-89
2021/03/13 13:57:15;;;;;;;5.15;1.83;;;7.50;74.40;;;;;;6269787;23;20158;-87
2021/03/13 13:59:44;;;;;;;4.78;1.40;;;8.50;72.40;;;;;;6217423;23;20178;-89
2021/03/13 14:02:15;;;;;;;6.63;1.45;;;9.00;67.60;;;;;;6268096;23;20147;-88
2021/03/13 14:05:04;;;;;;;2.75;1.25;;;8.60;64.50;;;;;;6240285;22;20163;-89
2021/03/13 14:07:40;;;;;;;2.42;1.52;;;8.50;66.50;;;;;;6255603;23;20181;-90
2021/03/13 14:10:32;;;;;;;4.90;1.70;;;8.20;66.00;;;;;;6266830;23;20159;-89
2021/03/13 14:16:33;;;;;;;3.65;3.10;;;10.60;67.20;;;;;;6266660;23;20189;-91
2021/03/13 14:19:10;;;;;;;5.43;1.90;;;7.50;65.80;;;;;;6241931;23;20181;-89
2021/03/13 14:21:37;;;;;;;5.68;1.83;;;7.90;68.90;;;;;;6270549;22;20146;-88
2021/03/13 14:24:13;;;;;;;3.60;2.22;;;8.60;67.50;;;;;;6241608;23;20150;-89
2021/03/13 14:30:13;;;;;;;3.78;2.22;;;7.20;68.00;;;;;;6269440;23;20146;-89
2021/03/13 14:33:06;;;;;;;2.25;1.83;;;8.20;72.30;;;;;;6258543;23;20150;-90
2021/03/13 14:35:35;;;;;;;2.65;2.00;;;7.90;74.60;;;;;;6239029;23;20143;-86
2021/03/13 14:38:08;;;;;;;1.77;1.60;;;8.00;70.40;;;;;;6213182;23;20223;-87
2021/03/13 14:40:58;;;;;;;2.80;1.23;;;7.40;71.20;;;;;;6266822;23;20173;-88
2021/03/13 14:43:28;;;;;;;5.35;1.88;;;9.10;65.00;;;;;;6237245;23;20153;-88
2021/03/13 14:53:45;;;;;;;4.38;1.85;;;8.60;62.10;;;;;;6177941;23;20199;-89
2021/03/13 14:56:58;;;;;;;2.15;1.95;;;8.40;64.80;;;;;;6218236;23;20203;-89
2021/03/13 14:59:32;;;;;;;6.88;2.15;;;10.70;65.00;;;;;;6240138;23;20139;-89
2021/03/13 15:17:35;;;;;;;3.70;1.35;;;6.90;67.60;;;;;;6179626;22;20199;-87
2021/03/13 15:25:26;;;;;;;1.40;1.30;;;6.10;65.30;;;;;;6141723;22;20204;-88
2021/03/13 15:27:56;;;;;;;1.45;1.45;;;5.80;71.70;;;;;;6215574;22;20207;-85
2021/03/13 15:38:39;;;;;;;2.70;1.80;;;5.90;72.80;;;;;;6264471;22;20202;-87
2021/03/13 15:46:45;;;;;;;8.75;1.60;;;6.40;68.70;;;;;;6073021;22;20194;-88
2021/03/13 16:07:37;;;;;;;9.75;5.13;;;6.70;71.10;;;;;;6306106;22;20146;-89
2021/03/13 16:10:35;;;;;;;2.42;1.55;;;6.80;71.80;;;;;;6297623;22;20200;-90
2021/03/13 16:13:07;;;;;;;5.32;1.33;;;8.40;69.90;;;;;;6269455;22;20142;-90
2021/03/13 16:15:42;;;;;;;2.70;2.50;;;7.20;72.10;;;;;;6273106;22;20146;-88
2021/03/13 16:18:32;;;;;;;2.33;1.92;;;8.10;70.00;;;;;;6249841;22;20244;-89
2021/03/13 16:20:59;;;;;;;1.85;1.65;;;7.00;68.20;;;;;;6273768;22;20150;-89
2021/03/13 16:28:56;;;;;;;2.00;1.80;;;7.00;69.10;;;;;;6269500;22;20182;-89
2021/03/13 16:31:24;;;;;;;4.40;2.10;;;8.30;70.00;;;;;;6240733;23;20177;-90
2021/03/13 16:34:10;;;;;;;;;;;;;;;;;;;;;
2021/03/13 16:47:40;;;;;;;1.40;1.30;;;7.20;61.70;;;;;;6266880;22;20186;-89
2021/03/13 16:50:13;;;;;;;1.55;1.45;;;7.60;65.20;;;;;;6273182;22;20142;-88
2021/03/13 16:52:54;;;;;;;3.00;1.20;;;5.70;64.40;;;;;;6235906;23;20147;-92
2021/03/13 16:56:13;;;;;;;2.20;1.02;;;6.60;64.80;;;;;;6245383;23;20293;-90